sensor_id;sensor_type;location;lat;lon;timestamp;P1;durP1;ratioP1;P2;durP2;ratioP2
66585;SDS011;53444;45.822;16.092;2024-03-02T00:00:14;61.20;;;28.33;;
66585;SDS011;53444;45.822;16.092;2024-03-02T00:02:43;58.63;;;28.87;;
66585;SDS011;53444;45.822;16.092;2024-03-02T00:05:10;56.20;;;28.63;;
66585;SDS011;53444;45.822;16.092;2024-03-02T00:07:38;61.13;;;28.73;;
66585;SDS011;53444;45.822;16.092;2024-03-02T00:10:08;58.80;;;29.60;;
66585;SDS011;53444;45.822;16.092;2024-03-02T00:12:36;59.03;;;29.55;;
66585;SDS011;53444;45.822;16.092;2024-03-02T00:15:04;55.93;;;27.73;;
66585;SDS011;53444;45.822;16.092;2024-03-02T00:17:46;48.22;;;24.77;;
66585;SDS011;53444;45.822;16.092;2024-03-02T00:20:14;54.42;;;26.13;;
66585;SDS011;53444;45.822;16.092;2024-03-02T00:22:44;53.55;;;27.15;;
66585;SDS011;53444;45.822;16.092;2024-03-02T00:25:11;59.08;;;27.02;;
66585;SDS011;53444;45.822;16.092;2024-03-02T00:27:37;52.73;;;26.33;;
66585;SDS011;53444;45.822;16.092;2024-03-02T00:30:05;58.85;;;28.17;;
66585;SDS011;53444;45.822;16.092;2024-03-02T00:32:53;53.13;;;26.20;;
66585;SDS011;53444;45.822;16.092;2024-03-02T00:35:20;45.83;;;24.13;;
66585;SDS011;53444;45.822;16.092;2024-03-02T00:37:49;46.42;;;23.00;;
66585;SDS011;53444;45.822;16.092;2024-03-02T00:40:16;47.05;;;23.55;;
66585;SDS011;53444;45.822;16.092;2024-03-02T00:42:44;45.72;;;22.50;;
66585;SDS011;53444;45.822;16.092;2024-03-02T00:45:10;44.40;;;22.30;;
66585;SDS011;53444;45.822;16.092;2024-03-02T00:47:38;46.80;;;23.57;;
66585;SDS011;53444;45.822;16.092;2024-03-02T00:50:07;43.95;;;21.35;;
66585;SDS011;53444;45.822;16.092;2024-03-02T00:52:34;43.53;;;22.67;;
66585;SDS011;53444;45.822;16.092;2024-03-02T00:55:01;42.10;;;20.38;;
66585;SDS011;53444;45.822;16.092;2024-03-02T00:57:27;42.70;;;19.83;;
66585;SDS011;53444;45.822;16.092;2024-03-02T00:59:57;40.58;;;19.75;;
66585;SDS011;53444;45.822;16.092;2024-03-02T01:02:23;36.55;;;16.85;;
66585;SDS011;53444;45.822;16.092;2024-03-02T01:04:50;39.08;;;16.42;;
66585;SDS011;53444;45.822;16.092;2024-03-02T01:07:18;40.17;;;17.63;;
66585;SDS011;53444;45.822;16.092;2024-03-02T01:09:44;35.40;;;16.77;;
66585;SDS011;53444;45.822;16.092;2024-03-02T01:12:11;34.88;;;15.65;;
66585;SDS011;53444;45.822;16.092;2024-03-02T01:14:38;30.58;;;15.75;;
66585;SDS011;53444;45.822;16.092;2024-03-02T01:17:04;31.40;;;15.52;;
66585;SDS011;53444;45.822;16.092;2024-03-02T01:19:31;31.08;;;15.25;;
66585;SDS011;53444;45.822;16.092;2024-03-02T01:21:58;31.57;;;15.00;;
66585;SDS011;53444;45.822;16.092;2024-03-02T01:24:26;33.72;;;15.10;;
66585;SDS011;53444;45.822;16.092;2024-03-02T01:26:52;27.90;;;14.30;;
66585;SDS011;53444;45.822;16.092;2024-03-02T01:29:19;29.75;;;13.23;;
66585;SDS011;53444;45.822;16.092;2024-03-02T01:31:45;33.78;;;15.05;;
66585;SDS011;53444;45.822;16.092;2024-03-02T01:34:12;27.93;;;13.50;;
66585;SDS011;53444;45.822;16.092;2024-03-02T01:36:39;30.08;;;13.27;;
66585;SDS011;53444;45.822;16.092;2024-03-02T01:39:06;27.00;;;12.80;;
66585;SDS011;53444;45.822;16.092;2024-03-02T01:41:35;22.98;;;12.35;;
66585;SDS011;53444;45.822;16.092;2024-03-02T01:44:02;26.45;;;13.60;;
66585;SDS011;53444;45.822;16.092;2024-03-02T01:46:29;28.73;;;13.13;;
66585;SDS011;53444;45.822;16.092;2024-03-02T01:48:55;24.75;;;12.90;;
66585;SDS011;53444;45.822;16.092;2024-03-02T01:51:22;24.77;;;12.70;;
66585;SDS011;53444;45.822;16.092;2024-03-02T01:53:48;29.13;;;14.18;;
66585;SDS011;53444;45.822;16.092;2024-03-02T01:56:15;27.30;;;13.70;;
66585;SDS011;53444;45.822;16.092;2024-03-02T01:58:43;24.70;;;13.30;;
66585;SDS011;53444;45.822;16.092;2024-03-02T02:01:09;27.42;;;14.05;;
66585;SDS011;53444;45.822;16.092;2024-03-02T02:03:36;24.20;;;12.65;;
66585;SDS011;53444;45.822;16.092;2024-03-02T02:06:03;27.02;;;13.40;;
66585;SDS011;53444;45.822;16.092;2024-03-02T02:08:30;25.83;;;13.00;;
66585;SDS011;53444;45.822;16.092;2024-03-02T02:10:57;25.37;;;12.40;;
66585;SDS011;53444;45.822;16.092;2024-03-02T02:13:23;28.17;;;12.50;;
66585;SDS011;53444;45.822;16.092;2024-03-02T02:15:51;27.20;;;12.68;;
66585;SDS011;53444;45.822;16.092;2024-03-02T02:18:18;23.73;;;12.05;;
66585;SDS011;53444;45.822;16.092;2024-03-02T02:20:45;22.50;;;12.30;;
66585;SDS011;53444;45.822;16.092;2024-03-02T02:23:13;22.07;;;11.53;;
66585;SDS011;53444;45.822;16.092;2024-03-02T02:25:39;21.45;;;11.57;;
66585;SDS011;53444;45.822;16.092;2024-03-02T02:28:06;22.10;;;12.00;;
66585;SDS011;53444;45.822;16.092;2024-03-02T02:30:32;22.90;;;11.82;;
66585;SDS011;53444;45.822;16.092;2024-03-02T02:32:59;23.17;;;12.35;;
66585;SDS011;53444;45.822;16.092;2024-03-02T02:35:26;26.90;;;12.77;;
66585;SDS011;53444;45.822;16.092;2024-03-02T02:37:53;28.27;;;14.50;;
66585;SDS011;53444;45.822;16.092;2024-03-02T02:40:22;31.70;;;15.90;;
66585;SDS011;53444;45.822;16.092;2024-03-02T02:42:49;35.25;;;16.38;;
66585;SDS011;53444;45.822;16.092;2024-03-02T02:45:17;33.55;;;16.95;;
66585;SDS011;53444;45.822;16.092;2024-03-02T02:47:44;33.37;;;14.90;;
66585;SDS011;53444;45.822;16.092;2024-03-02T02:50:11;35.13;;;16.50;;
66585;SDS011;53444;45.822;16.092;2024-03-02T02:52:38;33.70;;;16.15;;
66585;SDS011;53444;45.822;16.092;2024-03-02T02:55:07;31.45;;;14.80;;
66585;SDS011;53444;45.822;16.092;2024-03-02T02:57:38;29.30;;;14.88;;
66585;SDS011;53444;45.822;16.092;2024-03-02T03:00:07;29.73;;;13.37;;
66585;SDS011;53444;45.822;16.092;2024-03-02T03:02:39;28.88;;;13.95;;
66585;SDS011;53444;45.822;16.092;2024-03-02T03:05:07;33.67;;;13.88;;
66585;SDS011;53444;45.822;16.092;2024-03-02T03:07:35;31.30;;;13.93;;
66585;SDS011;53444;45.822;16.092;2024-03-02T03:10:02;25.67;;;13.57;;
66585;SDS011;53444;45.822;16.092;2024-03-02T03:12:29;34.57;;;15.13;;
66585;SDS011;53444;45.822;16.092;2024-03-02T03:14:57;31.75;;;15.52;;
66585;SDS011;53444;45.822;16.092;2024-03-02T03:17:24;32.72;;;15.40;;
66585;SDS011;53444;45.822;16.092;2024-03-02T03:19:52;29.58;;;13.82;;
66585;SDS011;53444;45.822;16.092;2024-03-02T03:22:19;30.67;;;14.82;;
66585;SDS011;53444;45.822;16.092;2024-03-02T03:24:51;29.60;;;14.13;;
66585;SDS011;53444;45.822;16.092;2024-03-02T03:27:17;28.40;;;15.00;;
66585;SDS011;53444;45.822;16.092;2024-03-02T03:29:44;32.63;;;15.65;;
66585;SDS011;53444;45.822;16.092;2024-03-02T03:32:12;31.42;;;14.65;;
66585;SDS011;53444;45.822;16.092;2024-03-02T03:34:39;30.77;;;15.32;;
66585;SDS011;53444;45.822;16.092;2024-03-02T03:37:06;31.57;;;14.37;;
66585;SDS011;53444;45.822;16.092;2024-03-02T03:39:33;29.58;;;15.55;;
66585;SDS011;53444;45.822;16.092;2024-03-02T03:42:00;29.95;;;15.73;;
66585;SDS011;53444;45.822;16.092;2024-03-02T03:44:27;32.10;;;14.60;;
66585;SDS011;53444;45.822;16.092;2024-03-02T03:46:54;26.13;;;14.00;;
66585;SDS011;53444;45.822;16.092;2024-03-02T03:49:21;24.40;;;12.70;;
66585;SDS011;53444;45.822;16.092;2024-03-02T03:51:48;29.35;;;12.90;;
66585;SDS011;53444;45.822;16.092;2024-03-02T03:54:15;26.70;;;12.70;;
66585;SDS011;53444;45.822;16.092;2024-03-02T03:56:41;25.63;;;12.13;;
66585;SDS011;53444;45.822;16.092;2024-03-02T03:59:08;27.52;;;13.52;;
66585;SDS011;53444;45.822;16.092;2024-03-02T04:01:34;29.03;;;13.03;;
66585;SDS011;53444;45.822;16.092;2024-03-02T04:04:01;25.85;;;12.27;;
66585;SDS011;53444;45.822;16.092;2024-03-02T04:06:30;24.70;;;12.77;;
66585;SDS011;53444;45.822;16.092;2024-03-02T04:08:57;25.83;;;11.93;;
66585;SDS011;53444;45.822;16.092;2024-03-02T04:11:23;26.00;;;12.40;;
66585;SDS011;53444;45.822;16.092;2024-03-02T04:13:50;23.87;;;11.73;;
66585;SDS011;53444;45.822;16.092;2024-03-02T04:16:16;26.50;;;12.35;;
66585;SDS011;53444;45.822;16.092;2024-03-02T04:18:43;27.98;;;11.73;;
66585;SDS011;53444;45.822;16.092;2024-03-02T04:21:09;27.15;;;12.73;;
66585;SDS011;53444;45.822;16.092;2024-03-02T04:23:37;24.77;;;13.63;;
66585;SDS011;53444;45.822;16.092;2024-03-02T04:26:04;22.67;;;12.63;;
66585;SDS011;53444;45.822;16.092;2024-03-02T04:28:30;27.98;;;15.38;;
66585;SDS011;53444;45.822;16.092;2024-03-02T04:30:58;40.28;;;21.00;;
66585;SDS011;53444;45.822;16.092;2024-03-02T04:33:24;48.85;;;22.52;;
66585;SDS011;53444;45.822;16.092;2024-03-02T04:35:51;45.58;;;23.08;;
66585;SDS011;53444;45.822;16.092;2024-03-02T04:38:17;48.87;;;22.77;;
66585;SDS011;53444;45.822;16.092;2024-03-02T04:40:45;45.80;;;24.08;;
66585;SDS011;53444;45.822;16.092;2024-03-02T04:43:12;47.53;;;23.60;;
66585;SDS011;53444;45.822;16.092;2024-03-02T04:45:41;54.20;;;22.52;;
66585;SDS011;53444;45.822;16.092;2024-03-02T04:48:08;51.55;;;25.15;;
66585;SDS011;53444;45.822;16.092;2024-03-02T04:50:35;44.23;;;21.77;;
66585;SDS011;53444;45.822;16.092;2024-03-02T04:53:01;65.18;;;24.17;;
66585;SDS011;53444;45.822;16.092;2024-03-02T04:55:28;56.63;;;23.30;;
66585;SDS011;53444;45.822;16.092;2024-03-02T04:58:14;55.90;;;21.98;;
66585;SDS011;53444;45.822;16.092;2024-03-02T05:00:40;55.38;;;25.60;;
66585;SDS011;53444;45.822;16.092;2024-03-02T05:03:07;67.93;;;24.40;;
66585;SDS011;53444;45.822;16.092;2024-03-02T05:05:34;49.92;;;24.30;;
66585;SDS011;53444;45.822;16.092;2024-03-02T05:08:02;57.20;;;26.73;;
66585;SDS011;53444;45.822;16.092;2024-03-02T05:10:29;56.88;;;25.25;;
66585;SDS011;53444;45.822;16.092;2024-03-02T05:12:55;52.80;;;26.75;;
66585;SDS011;53444;45.822;16.092;2024-03-02T05:15:25;57.13;;;25.90;;
66585;SDS011;53444;45.822;16.092;2024-03-02T05:17:52;86.40;;;36.40;;
66585;SDS011;53444;45.822;16.092;2024-03-02T05:20:19;71.43;;;32.75;;
66585;SDS011;53444;45.822;16.092;2024-03-02T05:22:46;60.95;;;29.27;;
66585;SDS011;53444;45.822;16.092;2024-03-02T05:25:13;57.65;;;26.20;;
66585;SDS011;53444;45.822;16.092;2024-03-02T05:27:40;56.80;;;26.87;;
66585;SDS011;53444;45.822;16.092;2024-03-02T05:30:07;56.15;;;26.85;;
66585;SDS011;53444;45.822;16.092;2024-03-02T05:32:36;53.40;;;25.13;;
66585;SDS011;53444;45.822;16.092;2024-03-02T05:35:03;53.80;;;25.08;;
66585;SDS011;53444;45.822;16.092;2024-03-02T05:37:30;58.28;;;24.90;;
66585;SDS011;53444;45.822;16.092;2024-03-02T05:39:56;48.40;;;23.77;;
66585;SDS011;53444;45.822;16.092;2024-03-02T05:42:24;51.28;;;24.92;;
66585;SDS011;53444;45.822;16.092;2024-03-02T05:44:52;51.40;;;25.83;;
66585;SDS011;53444;45.822;16.092;2024-03-02T05:47:18;52.45;;;25.10;;
66585;SDS011;53444;45.822;16.092;2024-03-02T05:49:46;50.13;;;25.58;;
66585;SDS011;53444;45.822;16.092;2024-03-02T05:52:13;48.03;;;23.53;;
66585;SDS011;53444;45.822;16.092;2024-03-02T05:54:39;47.35;;;23.67;;
66585;SDS011;53444;45.822;16.092;2024-03-02T05:57:06;47.85;;;24.48;;
66585;SDS011;53444;45.822;16.092;2024-03-02T05:59:54;57.13;;;23.90;;
66585;SDS011;53444;45.822;16.092;2024-03-02T06:02:20;47.42;;;23.67;;
66585;SDS011;53444;45.822;16.092;2024-03-02T06:04:48;46.43;;;23.97;;
66585;SDS011;53444;45.822;16.092;2024-03-02T06:07:15;49.05;;;24.17;;
66585;SDS011;53444;45.822;16.092;2024-03-02T06:09:41;48.35;;;23.85;;
66585;SDS011;53444;45.822;16.092;2024-03-02T06:12:09;44.45;;;22.15;;
66585;SDS011;53444;45.822;16.092;2024-03-02T06:14:36;44.50;;;23.80;;
66585;SDS011;53444;45.822;16.092;2024-03-02T06:17:03;41.20;;;21.83;;
66585;SDS011;53444;45.822;16.092;2024-03-02T06:19:30;46.75;;;22.77;;
66585;SDS011;53444;45.822;16.092;2024-03-02T06:21:58;48.00;;;22.88;;
66585;SDS011;53444;45.822;16.092;2024-03-02T06:24:25;42.33;;;21.77;;
66585;SDS011;53444;45.822;16.092;2024-03-02T06:26:51;42.22;;;22.17;;
66585;SDS011;53444;45.822;16.092;2024-03-02T06:29:18;36.60;;;19.27;;
66585;SDS011;53444;45.822;16.092;2024-03-02T06:31:44;39.88;;;20.15;;
66585;SDS011;53444;45.822;16.092;2024-03-02T06:34:11;33.08;;;18.75;;
66585;SDS011;53444;45.822;16.092;2024-03-02T06:36:38;43.92;;;21.50;;
66585;SDS011;53444;45.822;16.092;2024-03-02T06:39:07;42.15;;;22.25;;
66585;SDS011;53444;45.822;16.092;2024-03-02T06:41:35;45.00;;;22.47;;
66585;SDS011;53444;45.822;16.092;2024-03-02T06:44:03;44.95;;;22.10;;
66585;SDS011;53444;45.822;16.092;2024-03-02T06:46:31;44.03;;;22.35;;
66585;SDS011;53444;45.822;16.092;2024-03-02T06:48:58;46.22;;;22.02;;
66585;SDS011;53444;45.822;16.092;2024-03-02T06:51:24;44.67;;;20.65;;
66585;SDS011;53444;45.822;16.092;2024-03-02T06:53:51;38.33;;;18.87;;
66585;SDS011;53444;45.822;16.092;2024-03-02T06:56:19;46.30;;;19.52;;
66585;SDS011;53444;45.822;16.092;2024-03-02T06:58:46;44.40;;;21.73;;
66585;SDS011;53444;45.822;16.092;2024-03-02T07:01:12;44.65;;;20.10;;
66585;SDS011;53444;45.822;16.092;2024-03-02T07:03:39;39.53;;;20.42;;
66585;SDS011;53444;45.822;16.092;2024-03-02T07:06:05;45.83;;;21.83;;
66585;SDS011;53444;45.822;16.092;2024-03-02T07:08:32;50.58;;;21.98;;
66585;SDS011;53444;45.822;16.092;2024-03-02T07:10:59;41.13;;;21.20;;
66585;SDS011;53444;45.822;16.092;2024-03-02T07:13:27;44.25;;;18.48;;
66585;SDS011;53444;45.822;16.092;2024-03-02T07:15:54;45.05;;;19.25;;
66585;SDS011;53444;45.822;16.092;2024-03-02T07:18:47;36.30;;;17.93;;
66585;SDS011;53444;45.822;16.092;2024-03-02T07:21:16;42.75;;;18.98;;
66585;SDS011;53444;45.822;16.092;2024-03-02T07:23:43;52.42;;;21.52;;
66585;SDS011;53444;45.822;16.092;2024-03-02T07:26:10;55.10;;;21.90;;
66585;SDS011;53444;45.822;16.092;2024-03-02T07:28:38;48.45;;;22.73;;
66585;SDS011;53444;45.822;16.092;2024-03-02T07:31:05;48.33;;;19.67;;
66585;SDS011;53444;45.822;16.092;2024-03-02T07:33:32;55.58;;;20.25;;
66585;SDS011;53444;45.822;16.092;2024-03-02T07:35:59;55.78;;;22.10;;
66585;SDS011;53444;45.822;16.092;2024-03-02T07:38:27;52.78;;;20.33;;
66585;SDS011;53444;45.822;16.092;2024-03-02T07:40:53;58.35;;;26.30;;
66585;SDS011;53444;45.822;16.092;2024-03-02T07:43:20;51.77;;;24.53;;
66585;SDS011;53444;45.822;16.092;2024-03-02T07:45:49;51.80;;;23.30;;
66585;SDS011;53444;45.822;16.092;2024-03-02T07:48:15;52.88;;;22.85;;
66585;SDS011;53444;45.822;16.092;2024-03-02T07:50:42;55.25;;;22.02;;
66585;SDS011;53444;45.822;16.092;2024-03-02T07:53:09;46.42;;;21.20;;
66585;SDS011;53444;45.822;16.092;2024-03-02T07:55:36;54.00;;;20.60;;
66585;SDS011;53444;45.822;16.092;2024-03-02T07:58:03;50.88;;;20.98;;
66585;SDS011;53444;45.822;16.092;2024-03-02T08:00:30;45.13;;;20.50;;
66585;SDS011;53444;45.822;16.092;2024-03-02T08:02:58;45.47;;;20.63;;
66585;SDS011;53444;45.822;16.092;2024-03-02T08:05:25;45.22;;;20.92;;
66585;SDS011;53444;45.822;16.092;2024-03-02T08:07:52;44.13;;;20.03;;
66585;SDS011;53444;45.822;16.092;2024-03-02T08:10:19;45.40;;;21.05;;
66585;SDS011;53444;45.822;16.092;2024-03-02T08:12:46;48.53;;;22.13;;
66585;SDS011;53444;45.822;16.092;2024-03-02T08:15:13;54.35;;;22.45;;
66585;SDS011;53444;45.822;16.092;2024-03-02T08:17:40;53.15;;;23.13;;
66585;SDS011;53444;45.822;16.092;2024-03-02T08:20:11;48.53;;;22.17;;
66585;SDS011;53444;45.822;16.092;2024-03-02T08:22:39;52.30;;;21.63;;
66585;SDS011;53444;45.822;16.092;2024-03-02T08:25:06;49.88;;;21.08;;
66585;SDS011;53444;45.822;16.092;2024-03-02T08:27:34;49.97;;;22.98;;
66585;SDS011;53444;45.822;16.092;2024-03-02T08:30:01;51.70;;;22.73;;
66585;SDS011;53444;45.822;16.092;2024-03-02T08:32:31;49.47;;;19.90;;
66585;SDS011;53444;45.822;16.092;2024-03-02T08:34:58;44.15;;;21.75;;
66585;SDS011;53444;45.822;16.092;2024-03-02T08:37:26;51.78;;;22.85;;
66585;SDS011;53444;45.822;16.092;2024-03-02T08:39:52;46.28;;;22.02;;
66585;SDS011;53444;45.822;16.092;2024-03-02T08:42:19;55.70;;;23.02;;
66585;SDS011;53444;45.822;16.092;2024-03-02T08:44:46;47.87;;;21.17;;
66585;SDS011;53444;45.822;16.092;2024-03-02T08:47:13;49.97;;;22.48;;
66585;SDS011;53444;45.822;16.092;2024-03-02T08:49:40;52.42;;;23.75;;
66585;SDS011;53444;45.822;16.092;2024-03-02T08:52:06;50.63;;;22.95;;
66585;SDS011;53444;45.822;16.092;2024-03-02T08:54:34;57.72;;;23.27;;
66585;SDS011;53444;45.822;16.092;2024-03-02T08:57:01;48.63;;;22.87;;
66585;SDS011;53444;45.822;16.092;2024-03-02T08:59:28;54.30;;;21.63;;
66585;SDS011;53444;45.822;16.092;2024-03-02T09:01:55;46.30;;;21.95;;
66585;SDS011;53444;45.822;16.092;2024-03-02T09:04:21;48.72;;;22.27;;
66585;SDS011;53444;45.822;16.092;2024-03-02T09:06:48;48.38;;;22.48;;
66585;SDS011;53444;45.822;16.092;2024-03-02T09:09:15;48.80;;;20.60;;
66585;SDS011;53444;45.822;16.092;2024-03-02T09:11:43;54.58;;;23.52;;
66585;SDS011;53444;45.822;16.092;2024-03-02T09:14:09;48.67;;;22.67;;
66585;SDS011;53444;45.822;16.092;2024-03-02T09:19:03;52.33;;;24.13;;
66585;SDS011;53444;45.822;16.092;2024-03-02T09:21:30;53.37;;;22.53;;
66585;SDS011;53444;45.822;16.092;2024-03-02T09:23:58;49.00;;;22.98;;
66585;SDS011;53444;45.822;16.092;2024-03-02T09:26:24;48.85;;;22.92;;
66585;SDS011;53444;45.822;16.092;2024-03-02T09:28:52;50.75;;;23.45;;
66585;SDS011;53444;45.822;16.092;2024-03-02T09:31:20;55.75;;;25.13;;
66585;SDS011;53444;45.822;16.092;2024-03-02T09:33:47;52.20;;;22.97;;
66585;SDS011;53444;45.822;16.092;2024-03-02T09:36:17;52.83;;;24.42;;
66585;SDS011;53444;45.822;16.092;2024-03-02T09:38:44;55.50;;;24.73;;
66585;SDS011;53444;45.822;16.092;2024-03-02T09:41:11;53.45;;;24.17;;
66585;SDS011;53444;45.822;16.092;2024-03-02T09:43:38;56.13;;;26.27;;
66585;SDS011;53444;45.822;16.092;2024-03-02T09:46:07;57.60;;;25.87;;
66585;SDS011;53444;45.822;16.092;2024-03-02T09:48:35;59.78;;;26.85;;
66585;SDS011;53444;45.822;16.092;2024-03-02T09:51:02;60.75;;;27.70;;
66585;SDS011;53444;45.822;16.092;2024-03-02T09:53:31;53.65;;;25.00;;
66585;SDS011;53444;45.822;16.092;2024-03-02T09:55:58;61.28;;;27.75;;
66585;SDS011;53444;45.822;16.092;2024-03-02T09:58:26;56.60;;;25.40;;
66585;SDS011;53444;45.822;16.092;2024-03-02T10:00:52;54.55;;;26.85;;
66585;SDS011;53444;45.822;16.092;2024-03-02T10:03:22;57.53;;;27.77;;
66585;SDS011;53444;45.822;16.092;2024-03-02T10:05:49;59.55;;;27.30;;
66585;SDS011;53444;45.822;16.092;2024-03-02T10:08:16;59.55;;;28.17;;
66585;SDS011;53444;45.822;16.092;2024-03-02T10:10:43;57.67;;;27.17;;
66585;SDS011;53444;45.822;16.092;2024-03-02T10:13:11;62.28;;;28.38;;
66585;SDS011;53444;45.822;16.092;2024-03-02T10:15:38;56.55;;;27.70;;
66585;SDS011;53444;45.822;16.092;2024-03-02T10:18:08;66.50;;;30.75;;
66585;SDS011;53444;45.822;16.092;2024-03-02T10:20:37;65.43;;;29.90;;
66585;SDS011;53444;45.822;16.092;2024-03-02T10:23:10;65.33;;;30.13;;
66585;SDS011;53444;45.822;16.092;2024-03-02T10:25:38;61.88;;;28.83;;
66585;SDS011;53444;45.822;16.092;2024-03-02T10:28:05;62.25;;;29.40;;
66585;SDS011;53444;45.822;16.092;2024-03-02T10:30:32;59.08;;;29.23;;
66585;SDS011;53444;45.822;16.092;2024-03-02T10:32:59;67.40;;;29.20;;
66585;SDS011;53444;45.822;16.092;2024-03-02T10:35:27;63.53;;;29.20;;
66585;SDS011;53444;45.822;16.092;2024-03-02T10:37:55;65.60;;;30.30;;
66585;SDS011;53444;45.822;16.092;2024-03-02T10:40:22;67.47;;;31.50;;
66585;SDS011;53444;45.822;16.092;2024-03-02T10:42:49;65.22;;;29.00;;
66585;SDS011;53444;45.822;16.092;2024-03-02T10:45:20;70.85;;;31.42;;
66585;SDS011;53444;45.822;16.092;2024-03-02T10:47:49;59.63;;;29.87;;
66585;SDS011;53444;45.822;16.092;2024-03-02T10:50:16;60.72;;;29.95;;
66585;SDS011;53444;45.822;16.092;2024-03-02T10:52:44;62.33;;;29.50;;
66585;SDS011;53444;45.822;16.092;2024-03-02T10:55:13;59.08;;;29.30;;
66585;SDS011;53444;45.822;16.092;2024-03-02T10:57:45;64.28;;;29.50;;
66585;SDS011;53444;45.822;16.092;2024-03-02T11:00:18;57.63;;;29.33;;
66585;SDS011;53444;45.822;16.092;2024-03-02T11:02:50;55.28;;;28.38;;
66585;SDS011;53444;45.822;16.092;2024-03-02T11:05:24;61.78;;;30.52;;
66585;SDS011;53444;45.822;16.092;2024-03-02T11:08:06;55.65;;;28.35;;
66585;SDS011;53444;45.822;16.092;2024-03-02T11:10:37;56.45;;;28.92;;
66585;SDS011;53444;45.822;16.092;2024-03-02T11:13:08;56.27;;;27.80;;
66585;SDS011;53444;45.822;16.092;2024-03-02T11:15:37;61.80;;;29.02;;
66585;SDS011;53444;45.822;16.092;2024-03-02T11:18:10;56.13;;;29.40;;
66585;SDS011;53444;45.822;16.092;2024-03-02T11:20:38;57.97;;;28.23;;
66585;SDS011;53444;45.822;16.092;2024-03-02T11:23:05;58.67;;;29.48;;
66585;SDS011;53444;45.822;16.092;2024-03-02T11:25:33;90.63;;;41.17;;
66585;SDS011;53444;45.822;16.092;2024-03-02T11:28:02;64.72;;;30.42;;
66585;SDS011;53444;45.822;16.092;2024-03-02T11:33:18;49.88;;;25.55;;
66585;SDS011;53444;45.822;16.092;2024-03-02T11:35:52;48.10;;;25.98;;
66585;SDS011;53444;45.822;16.092;2024-03-02T11:38:20;50.60;;;26.33;;
66585;SDS011;53444;45.822;16.092;2024-03-02T11:40:47;56.05;;;28.52;;
66585;SDS011;53444;45.822;16.092;2024-03-02T11:43:16;53.60;;;25.83;;
66585;SDS011;53444;45.822;16.092;2024-03-02T11:45:43;54.20;;;26.45;;
66585;SDS011;53444;45.822;16.092;2024-03-02T11:48:18;43.97;;;24.38;;
66585;SDS011;53444;45.822;16.092;2024-03-02T11:50:53;44.17;;;23.90;;
66585;SDS011;53444;45.822;16.092;2024-03-02T11:53:24;50.47;;;25.85;;
66585;SDS011;53444;45.822;16.092;2024-03-02T11:55:54;45.75;;;24.33;;
66585;SDS011;53444;45.822;16.092;2024-03-02T11:58:23;42.65;;;22.65;;
66585;SDS011;53444;45.822;16.092;2024-03-02T12:00:52;43.63;;;24.33;;
66585;SDS011;53444;45.822;16.092;2024-03-02T12:03:21;43.03;;;23.97;;
66585;SDS011;53444;45.822;16.092;2024-03-02T12:05:50;39.15;;;22.23;;
66585;SDS011;53444;45.822;16.092;2024-03-02T12:08:17;42.22;;;23.58;;
66585;SDS011;53444;45.822;16.092;2024-03-02T12:10:55;47.90;;;24.65;;
66585;SDS011;53444;45.822;16.092;2024-03-02T12:13:25;47.65;;;23.58;;
66585;SDS011;53444;45.822;16.092;2024-03-02T12:15:53;40.97;;;23.37;;
66585;SDS011;53444;45.822;16.092;2024-03-02T12:18:22;41.85;;;23.20;;
66585;SDS011;53444;45.822;16.092;2024-03-02T12:20:49;42.78;;;24.55;;
66585;SDS011;53444;45.822;16.092;2024-03-02T12:23:17;38.50;;;21.80;;
66585;SDS011;53444;45.822;16.092;2024-03-02T12:25:49;39.50;;;21.80;;
66585;SDS011;53444;45.822;16.092;2024-03-02T12:28:17;35.53;;;19.77;;
66585;SDS011;53444;45.822;16.092;2024-03-02T12:30:50;43.38;;;23.90;;
66585;SDS011;53444;45.822;16.092;2024-03-02T12:33:19;41.90;;;23.35;;
66585;SDS011;53444;45.822;16.092;2024-03-02T12:35:46;35.78;;;20.65;;
66585;SDS011;53444;45.822;16.092;2024-03-02T12:38:15;36.60;;;21.58;;
66585;SDS011;53444;45.822;16.092;2024-03-02T12:40:43;38.00;;;20.73;;
66585;SDS011;53444;45.822;16.092;2024-03-02T12:43:10;35.47;;;20.13;;
66585;SDS011;53444;45.822;16.092;2024-03-02T12:45:37;36.72;;;20.90;;
66585;SDS011;53444;45.822;16.092;2024-03-02T12:48:06;32.28;;;18.80;;
66585;SDS011;53444;45.822;16.092;2024-03-02T12:50:33;30.90;;;19.23;;
66585;SDS011;53444;45.822;16.092;2024-03-02T12:53:00;30.47;;;18.83;;
66585;SDS011;53444;45.822;16.092;2024-03-02T12:55:27;33.75;;;19.38;;
66585;SDS011;53444;45.822;16.092;2024-03-02T12:57:54;30.73;;;19.20;;
66585;SDS011;53444;45.822;16.092;2024-03-02T13:00:21;31.70;;;17.00;;
66585;SDS011;53444;45.822;16.092;2024-03-02T13:02:48;29.20;;;17.63;;
66585;SDS011;53444;45.822;16.092;2024-03-02T13:05:17;29.70;;;17.47;;
66585;SDS011;53444;45.822;16.092;2024-03-02T13:07:44;28.50;;;16.98;;
66585;SDS011;53444;45.822;16.092;2024-03-02T13:10:13;27.92;;;17.13;;
66585;SDS011;53444;45.822;16.092;2024-03-02T13:12:39;26.42;;;15.48;;
66585;SDS011;53444;45.822;16.092;2024-03-02T13:15:06;23.05;;;13.90;;
66585;SDS011;53444;45.822;16.092;2024-03-02T13:17:34;24.83;;;15.20;;
66585;SDS011;53444;45.822;16.092;2024-03-02T13:20:02;22.83;;;13.80;;
66585;SDS011;53444;45.822;16.092;2024-03-02T13:22:34;23.52;;;14.32;;
66585;SDS011;53444;45.822;16.092;2024-03-02T13:25:01;30.08;;;18.23;;
66585;SDS011;53444;45.822;16.092;2024-03-02T13:27:28;31.27;;;19.95;;
66585;SDS011;53444;45.822;16.092;2024-03-02T13:29:55;32.10;;;19.67;;
66585;SDS011;53444;45.822;16.092;2024-03-02T13:32:22;25.95;;;16.25;;
66585;SDS011;53444;45.822;16.092;2024-03-02T13:34:50;20.33;;;14.05;;
66585;SDS011;53444;45.822;16.092;2024-03-02T13:37:17;21.98;;;12.60;;
66585;SDS011;53444;45.822;16.092;2024-03-02T13:39:45;21.20;;;12.75;;
66585;SDS011;53444;45.822;16.092;2024-03-02T13:42:12;19.30;;;12.13;;
66585;SDS011;53444;45.822;16.092;2024-03-02T13:44:40;20.17;;;11.98;;
66585;SDS011;53444;45.822;16.092;2024-03-02T13:47:07;22.00;;;12.93;;
66585;SDS011;53444;45.822;16.092;2024-03-02T13:49:34;25.98;;;14.63;;
66585;SDS011;53444;45.822;16.092;2024-03-02T13:52:01;23.88;;;14.82;;
66585;SDS011;53444;45.822;16.092;2024-03-02T13:54:36;21.13;;;12.83;;
66585;SDS011;53444;45.822;16.092;2024-03-02T13:57:05;23.17;;;13.98;;
66585;SDS011;53444;45.822;16.092;2024-03-02T13:59:32;23.95;;;14.10;;
66585;SDS011;53444;45.822;16.092;2024-03-02T14:01:58;24.58;;;14.00;;
66585;SDS011;53444;45.822;16.092;2024-03-02T14:04:25;24.00;;;14.77;;
66585;SDS011;53444;45.822;16.092;2024-03-02T14:06:52;20.50;;;13.87;;
66585;SDS011;53444;45.822;16.092;2024-03-02T14:09:19;24.27;;;14.23;;
66585;SDS011;53444;45.822;16.092;2024-03-02T14:11:46;22.35;;;14.25;;
66585;SDS011;53444;45.822;16.092;2024-03-02T14:14:16;22.00;;;13.15;;
66585;SDS011;53444;45.822;16.092;2024-03-02T14:16:42;17.23;;;11.45;;